Terminal Aerodrome Forecast
Issued by NWS St Louis, MO

Home | Current Version | Previous Version | Text Only | Print | Product List | Glossary On
Versions: 1 2 3 4 5 6 7 8 9 10 11 12 13 14 15 16 17 18 19 20 21 22 23 24 25
000
FTUS43 KLSX 280700 AAB
TAFSTL
TAF AMD
KSTL 280700Z 2807/2912 23007KT 5SM -SHRA VCTS BKN040CB OVC080
      TEMPO 2807/2809 2SM TSRA
     FM281000 30011G19KT P6SM SCT040 BKN080
      TEMPO 2810/2811 5SM -SHRA
     FM281500 29012KT P6SM SCT250
     FM290000 28006KT P6SM SKC=

USA.gov is the U.S. government's official web portal to all federal, state and local government web resources and services.